createdAt,value
2022-10-22T00:01:12.241Z,9.63
2022-10-22T00:03:41.539Z,9.63
2022-10-22T00:06:09.816Z,9.62
2022-10-22T00:08:38.390Z,9.62
2022-10-22T00:11:14.881Z,9.62
2022-10-22T00:13:42.988Z,9.61
2022-10-22T00:16:11.217Z,9.60
2022-10-22T00:18:39.781Z,9.60
2022-10-22T00:21:08.591Z,9.58
2022-10-22T00:23:36.661Z,9.58
2022-10-22T00:26:04.730Z,9.58
2022-10-22T00:28:32.799Z,9.59
2022-10-22T00:31:01.984Z,9.59
2022-10-22T00:33:30.583Z,9.59
2022-10-22T00:35:59.061Z,9.59
2022-10-22T00:38:27.133Z,9.57
2022-10-22T00:40:55.467Z,9.58
2022-10-22T00:43:23.584Z,9.58
2022-10-22T00:45:51.757Z,9.58
2022-10-22T00:48:25.971Z,9.58
2022-10-22T00:51:01.319Z,9.58
2022-10-22T00:53:39.712Z,9.59
2022-10-22T00:56:09.439Z,9.58
2022-10-22T00:58:44.065Z,9.58
2022-10-22T01:01:20.152Z,9.58
2022-10-22T01:03:49.432Z,9.58
2022-10-22T01:06:33.845Z,9.59
2022-10-22T01:09:23.246Z,9.60
2022-10-22T01:12:10.471Z,9.61
2022-10-22T01:14:49.188Z,9.61
2022-10-22T01:17:36.409Z,9.62
2022-10-22T01:20:07.859Z,9.63
2022-10-22T01:23:13.717Z,9.63
2022-10-22T01:25:56.327Z,9.63
2022-10-22T01:28:27.265Z,9.63
2022-10-22T01:30:58.310Z,9.64
2022-10-22T01:33:27.382Z,9.63
2022-10-22T01:35:55.576Z,9.63
2022-10-22T01:38:25.395Z,9.63
2022-10-22T01:40:54.995Z,9.63
2022-10-22T01:43:23.391Z,9.62
2022-10-22T01:45:56.668Z,9.62
2022-10-22T01:48:55.460Z,9.61
2022-10-22T01:51:29.880Z,9.61
2022-10-22T01:54:30.310Z,9.59
2022-10-22T01:57:26.439Z,9.58
2022-10-22T02:00:13.659Z,9.55
2022-10-22T02:02:53.917Z,9.54
2022-10-22T02:05:25.163Z,9.52
2022-10-22T02:08:00.098Z,9.51
2022-10-22T02:10:31.106Z,9.50
2022-10-22T02:13:01.561Z,9.49
2022-10-22T02:15:33.523Z,9.49
2022-10-22T02:18:03.438Z,9.48
2022-10-22T02:20:37.039Z,9.46
2022-10-22T02:23:06.033Z,9.44
2022-10-22T02:25:40.963Z,9.40
2022-10-22T02:28:19.992Z,9.38
2022-10-22T02:30:55.025Z,9.37
2022-10-22T02:33:33.013Z,9.37
2022-10-22T02:36:03.052Z,9.36
2022-10-22T02:38:32.037Z,9.37
2022-10-22T02:41:00.112Z,9.37
2022-10-22T02:43:29.409Z,9.37
2022-10-22T02:45:57.791Z,9.37
2022-10-22T02:48:26.050Z,9.35
2022-10-22T02:50:54.036Z,9.36
2022-10-22T02:53:22.010Z,9.42
2022-10-22T02:55:50.286Z,9.44
2022-10-22T02:58:18.249Z,9.45
2022-10-22T03:00:46.470Z,9.47
2022-10-22T03:03:14.597Z,9.50
2022-10-22T03:05:42.677Z,9.50
2022-10-22T03:08:10.702Z,9.50
2022-10-22T03:10:38.812Z,9.50
2022-10-22T03:13:06.882Z,9.49
2022-10-22T03:15:34.957Z,9.49
2022-10-22T03:18:03.025Z,9.48
2022-10-22T03:20:31.300Z,9.47
2022-10-22T03:22:59.372Z,9.46
2022-10-22T03:25:28.671Z,9.43
2022-10-22T03:28:03.297Z,9.40
2022-10-22T03:30:31.675Z,9.38
2022-10-22T03:32:59.644Z,9.36
2022-10-22T03:35:27.953Z,9.35
2022-10-22T03:37:55.992Z,9.33
2022-10-22T03:40:24.062Z,9.31
2022-10-22T03:42:53.567Z,9.29
2022-10-22T03:45:21.640Z,9.27
2022-10-22T03:47:49.710Z,9.26
2022-10-22T03:50:17.886Z,9.24
2022-10-22T03:52:45.956Z,9.22
2022-10-22T03:55:13.924Z,9.20
2022-10-22T03:57:42.125Z,9.19
2022-10-22T04:00:11.319Z,9.17
2022-10-22T04:02:39.367Z,9.15
2022-10-22T04:05:08.470Z,9.21
2022-10-22T04:07:36.846Z,9.23
2022-10-22T04:10:05.735Z,9.23
2022-10-22T04:12:33.803Z,9.23
2022-10-22T04:15:01.875Z,9.25
2022-10-22T04:17:35.073Z,9.26
2022-10-22T04:20:04.469Z,9.24
2022-10-22T04:22:36.506Z,9.22
2022-10-22T04:25:05.444Z,9.21
2022-10-22T04:27:34.654Z,9.18
2022-10-22T04:30:04.346Z,9.14
2022-10-22T04:32:32.401Z,9.10
2022-10-22T04:35:00.370Z,9.08
2022-10-22T04:37:28.544Z,9.06
2022-10-22T04:39:58.177Z,9.04
2022-10-22T04:42:26.530Z,9.02
2022-10-22T04:44:54.499Z,9.01
2022-10-22T04:47:22.468Z,9.01
2022-10-22T04:49:50.539Z,9.01
2022-10-22T04:52:18.508Z,9.00
2022-10-22T04:54:47.123Z,8.99
2022-10-22T04:57:15.119Z,9.05
2022-10-22T04:59:43.102Z,9.07
2022-10-22T05:02:11.100Z,9.07
2022-10-22T05:04:39.084Z,9.07
2022-10-22T05:07:07.143Z,9.06
2022-10-22T05:09:35.416Z,9.04
2022-10-22T05:12:03.590Z,9.03
2022-10-22T05:14:31.661Z,9.01
2022-10-22T05:17:00.040Z,8.98
2022-10-22T05:19:31.059Z,8.95
2022-10-22T05:22:01.415Z,8.90
2022-10-22T05:24:31.116Z,8.85
2022-10-22T05:27:00.314Z,8.83
2022-10-22T05:29:28.486Z,8.82
2022-10-22T05:31:56.557Z,8.79
2022-10-22T05:34:24.628Z,8.77
2022-10-22T05:36:52.597Z,8.78
2022-10-22T05:39:20.671Z,8.83
2022-10-22T05:41:48.740Z,8.83
2022-10-22T05:44:16.709Z,8.84
2022-10-22T05:46:44.781Z,8.85
2022-10-22T05:49:15.187Z,8.87
2022-10-22T05:51:43.584Z,8.88
2022-10-22T05:54:20.464Z,8.88
2022-10-22T05:56:48.762Z,8.88
2022-10-22T05:59:16.920Z,8.87
2022-10-22T06:01:45.062Z,8.86
2022-10-22T06:04:13.554Z,8.85
2022-10-22T06:06:45.191Z,8.82
2022-10-22T06:09:20.390Z,8.83
2022-10-22T06:11:49.355Z,8.82
2022-10-22T06:14:18.345Z,8.81
2022-10-22T06:16:47.237Z,8.80
2022-10-22T06:19:18.072Z,8.81
2022-10-22T06:21:46.956Z,8.86
2022-10-22T06:24:15.240Z,8.88
2022-10-22T06:26:43.309Z,8.90
2022-10-22T06:29:11.588Z,8.94
2022-10-22T06:31:39.657Z,8.98
2022-10-22T06:34:11.745Z,9.03
2022-10-22T06:36:42.981Z,9.07
2022-10-22T06:39:16.570Z,9.12
2022-10-22T06:41:44.742Z,9.15
2022-10-22T06:44:16.092Z,9.19
2022-10-22T06:46:44.263Z,9.23
2022-10-22T06:49:14.692Z,9.25
2022-10-22T06:51:42.967Z,9.26
2022-10-22T06:54:11.276Z,9.29
2022-10-22T06:56:39.313Z,9.33
2022-10-22T06:59:07.386Z,9.39
2022-10-22T07:01:36.127Z,9.49
2022-10-22T07:04:05.366Z,9.57
2022-10-22T07:06:33.351Z,9.62
2022-10-22T07:09:01.890Z,9.69
2022-10-22T07:11:38.903Z,9.76
2022-10-22T07:14:07.896Z,9.82
2022-10-22T07:16:36.479Z,9.88
2022-10-22T07:19:05.267Z,9.94
2022-10-22T07:21:33.250Z,9.98
2022-10-22T07:24:01.410Z,10.01
2022-10-22T07:26:32.752Z,10.03
2022-10-22T07:29:01.649Z,10.06
2022-10-22T07:31:29.926Z,10.10
2022-10-22T07:33:58.345Z,10.14
2022-10-22T07:36:26.477Z,10.18
2022-10-22T07:38:57.827Z,10.23
2022-10-22T07:41:28.155Z,10.27
2022-10-22T07:43:57.438Z,10.31
2022-10-22T07:46:26.516Z,10.37
2022-10-22T07:48:54.617Z,10.47
2022-10-22T07:51:23.302Z,10.54
2022-10-22T07:53:51.476Z,10.59
2022-10-22T07:56:19.551Z,10.66
2022-10-22T07:58:47.517Z,10.73
2022-10-22T08:01:15.642Z,10.77
2022-10-22T08:03:44.785Z,10.79
2022-10-22T08:06:14.868Z,10.83
2022-10-22T08:08:43.940Z,10.88
2022-10-22T08:11:12.617Z,10.92
2022-10-22T08:13:45.138Z,10.94
2022-10-22T08:16:14.672Z,10.96
2022-10-22T08:18:42.943Z,10.98
2022-10-22T08:21:12.967Z,10.98
2022-10-22T08:23:41.234Z,10.98
2022-10-22T08:26:09.911Z,11.00
2022-10-22T08:28:38.400Z,11.00
2022-10-22T08:31:08.431Z,11.01
2022-10-22T08:33:38.952Z,11.01
2022-10-22T08:36:08.259Z,11.01
2022-10-22T08:38:36.624Z,11.01
2022-10-22T08:41:13.347Z,11.02
2022-10-22T08:43:56.524Z,11.06
2022-10-22T08:46:30.333Z,11.15
2022-10-22T08:49:02.044Z,11.17
2022-10-22T08:51:34.742Z,11.19
2022-10-22T08:54:05.809Z,11.24
2022-10-22T08:56:37.365Z,11.29
2022-10-22T08:59:24.989Z,11.33
2022-10-22T09:01:54.488Z,11.37
2022-10-22T09:04:33.317Z,11.39
2022-10-22T09:07:01.302Z,11.42
2022-10-22T09:09:39.791Z,11.45
2022-10-22T09:12:10.435Z,11.48
2022-10-22T09:14:38.711Z,11.52
2022-10-22T09:17:38.724Z,11.57
2022-10-22T09:20:27.180Z,11.63
2022-10-22T09:23:01.503Z,11.71
2022-10-22T09:25:33.838Z,11.82
2022-10-22T09:28:02.965Z,11.96
2022-10-22T09:30:36.468Z,12.12
2022-10-22T09:33:07.302Z,12.22
2022-10-22T09:35:45.605Z,12.28
2022-10-22T09:38:16.043Z,12.34
2022-10-22T09:40:51.277Z,12.42
2022-10-22T09:43:20.271Z,12.53
2022-10-22T09:45:56.124Z,12.59
2022-10-22T09:48:32.289Z,12.63
2022-10-22T09:51:18.790Z,12.74
2022-10-22T09:53:56.180Z,12.83
2022-10-22T09:56:35.618Z,12.88
2022-10-22T09:59:04.712Z,12.92
2022-10-22T10:01:35.963Z,12.96
2022-10-22T10:04:09.564Z,13.00
2022-10-22T10:06:41.206Z,13.04
2022-10-22T10:09:17.449Z,13.06
2022-10-22T10:12:05.107Z,13.07
2022-10-22T10:14:45.363Z,13.09
2022-10-22T10:17:19.354Z,13.09
2022-10-22T10:20:18.472Z,13.09
2022-10-22T10:23:03.132Z,13.09
2022-10-22T10:26:06.329Z,13.09
2022-10-22T10:28:48.530Z,13.11
2022-10-22T10:31:40.259Z,13.12
2022-10-22T10:34:45.807Z,13.16
2022-10-22T10:37:25.368Z,13.16
2022-10-22T10:40:08.162Z,13.17
2022-10-22T10:43:08.593Z,13.18
2022-10-22T10:46:04.274Z,13.18
2022-10-22T10:48:58.497Z,13.19
2022-10-22T10:51:51.427Z,13.19
2022-10-22T10:54:35.651Z,13.21
2022-10-22T10:57:19.747Z,13.27
2022-10-22T11:00:17.002Z,13.35
2022-10-22T11:03:03.916Z,13.39
2022-10-22T11:06:04.043Z,13.42
2022-10-22T11:08:36.968Z,13.45
2022-10-22T11:11:11.884Z,13.47
2022-10-22T11:13:49.654Z,13.49
2022-10-22T11:16:23.664Z,13.49
2022-10-22T11:19:22.667Z,13.48
2022-10-22T11:22:06.400Z,13.48
2022-10-22T11:24:43.584Z,13.48
2022-10-22T11:27:47.039Z,13.47
2022-10-22T11:30:20.588Z,13.46
2022-10-22T11:32:58.794Z,13.46
2022-10-22T11:35:31.985Z,13.46
2022-10-22T11:38:02.104Z,13.44
2022-10-22T11:40:30.175Z,13.42
2022-10-22T11:43:04.393Z,13.41
2022-10-22T11:45:40.053Z,13.39
2022-10-22T11:48:11.183Z,13.38
2022-10-22T11:50:42.943Z,13.36
2022-10-22T11:53:13.606Z,13.37
2022-10-22T11:55:51.705Z,13.41
2022-10-22T11:58:30.809Z,13.41
2022-10-22T12:01:01.645Z,13.39
2022-10-22T12:03:32.384Z,13.38
2022-10-22T12:06:12.431Z,13.37
2022-10-22T12:08:50.596Z,13.36
2022-10-22T12:11:36.940Z,13.34
2022-10-22T12:14:20.043Z,13.31
2022-10-22T12:17:10.463Z,13.28
2022-10-22T12:19:40.371Z,13.25
2022-10-22T12:22:17.147Z,13.22
2022-10-22T12:24:49.621Z,13.18
2022-10-22T12:27:34.282Z,13.15
2022-10-22T12:30:18.429Z,13.11
2022-10-22T12:32:46.502Z,13.11
2022-10-22T12:35:26.861Z,13.15
2022-10-22T12:37:57.696Z,13.15
2022-10-22T12:40:27.304Z,13.13
2022-10-22T12:43:01.808Z,13.15
2022-10-22T12:45:33.278Z,13.15
2022-10-22T12:48:22.034Z,13.15
2022-10-22T12:50:53.490Z,13.12
2022-10-22T12:53:45.620Z,13.10
2022-10-22T12:56:16.558Z,13.09
2022-10-22T12:58:52.984Z,13.07
2022-10-22T13:01:21.408Z,13.05
2022-10-22T13:04:19.660Z,13.04
2022-10-22T13:06:50.931Z,13.09
2022-10-22T13:09:27.052Z,13.08
2022-10-22T13:12:01.817Z,13.07
2022-10-22T13:14:33.064Z,13.07
2022-10-22T13:17:36.361Z,13.07
2022-10-22T13:20:16.110Z,13.05
2022-10-22T13:23:00.437Z,13.05
2022-10-22T13:25:30.554Z,13.09
2022-10-22T13:28:13.395Z,13.08
2022-10-22T13:30:57.031Z,13.05
2022-10-22T13:33:29.738Z,13.03
2022-10-22T13:35:58.191Z,13.01
2022-10-22T13:38:28.106Z,12.98
2022-10-22T13:40:57.099Z,12.94
2022-10-22T13:43:25.862Z,12.97
2022-10-22T13:45:57.953Z,12.96
2022-10-22T13:48:28.378Z,12.94
2022-10-22T13:50:56.658Z,12.91
2022-10-22T13:53:27.900Z,12.88
2022-10-22T13:55:55.877Z,12.86
2022-10-22T13:58:25.293Z,12.86
2022-10-22T14:00:59.182Z,12.88
2022-10-22T14:03:32.165Z,12.88
2022-10-22T14:06:01.057Z,12.86
2022-10-22T14:08:29.336Z,12.87
2022-10-22T14:10:57.611Z,12.86
2022-10-22T14:13:26.912Z,12.82
2022-10-22T14:15:55.186Z,12.79
2022-10-22T14:18:31.690Z,12.81
2022-10-22T14:21:05.257Z,12.81
2022-10-22T14:23:35.559Z,12.79
2022-10-22T14:26:04.815Z,12.77
2022-10-22T14:28:40.951Z,12.75
2022-10-22T14:31:15.450Z,12.74
2022-10-22T14:33:44.043Z,12.79
2022-10-22T14:36:14.680Z,12.78
2022-10-22T14:38:46.231Z,12.76
2022-10-22T14:41:21.161Z,12.73
2022-10-22T14:43:50.013Z,12.72
2022-10-22T14:46:19.234Z,12.73
2022-10-22T14:48:47.729Z,12.76
2022-10-22T14:51:18.770Z,12.75
2022-10-22T14:53:47.763Z,12.75
2022-10-22T14:56:18.702Z,12.74
2022-10-22T14:58:46.874Z,12.73
2022-10-22T15:01:15.177Z,12.73
2022-10-22T15:03:43.323Z,12.77
2022-10-22T15:06:11.805Z,12.78
2022-10-22T15:08:39.908Z,12.76
2022-10-22T15:11:11.326Z,12.74
2022-10-22T15:13:41.549Z,12.71
2022-10-22T15:16:11.769Z,12.68
2022-10-22T15:18:39.843Z,12.70
2022-10-22T15:21:17.948Z,12.72
2022-10-22T15:23:46.024Z,12.71
2022-10-22T15:26:14.705Z,12.70
2022-10-22T15:28:43.338Z,12.69
2022-10-22T15:31:14.427Z,12.68
2022-10-22T15:33:43.848Z,12.70
2022-10-22T15:36:14.875Z,12.72
2022-10-22T15:38:43.317Z,12.72
2022-10-22T15:41:13.593Z,12.72
2022-10-22T15:43:42.470Z,12.71
2022-10-22T15:46:14.449Z,12.71
2022-10-22T15:48:43.320Z,12.71
2022-10-22T15:51:17.024Z,12.73
2022-10-22T15:53:52.571Z,12.70
2022-10-22T15:56:20.867Z,12.65
2022-10-22T15:58:54.243Z,12.63
2022-10-22T16:01:22.779Z,12.64
2022-10-22T16:04:00.379Z,12.66
2022-10-22T16:06:36.479Z,12.69
2022-10-22T16:09:08.468Z,12.66
2022-10-22T16:11:37.967Z,12.66
2022-10-22T16:14:06.637Z,12.64
2022-10-22T16:16:36.857Z,12.64
2022-10-22T16:19:04.939Z,12.67
2022-10-22T16:21:32.997Z,12.63
2022-10-22T16:24:06.133Z,12.60
2022-10-22T16:26:35.898Z,12.58
2022-10-22T16:29:05.507Z,12.53
2022-10-22T16:31:33.580Z,12.52
2022-10-22T16:34:01.646Z,12.55
2022-10-22T16:36:29.721Z,12.52
2022-10-22T16:38:57.715Z,12.49
2022-10-22T16:41:33.949Z,12.49
2022-10-22T16:44:05.198Z,12.46
2022-10-22T16:46:34.323Z,12.50
2022-10-22T16:49:02.569Z,12.52
2022-10-22T16:51:30.640Z,12.48
2022-10-22T16:53:58.916Z,12.44
2022-10-22T16:56:27.470Z,12.39
2022-10-22T16:58:57.721Z,12.36
2022-10-22T17:01:29.173Z,12.38
2022-10-22T17:04:00.491Z,12.35
2022-10-22T17:06:29.194Z,12.35
2022-10-22T17:08:57.356Z,12.32
2022-10-22T17:11:25.654Z,12.31
2022-10-22T17:13:54.835Z,12.33
2022-10-22T17:16:24.776Z,12.32
2022-10-22T17:18:56.321Z,12.27
2022-10-22T17:21:25.121Z,12.20
2022-10-22T17:23:57.394Z,12.13
2022-10-22T17:26:27.113Z,12.13
2022-10-22T17:28:55.672Z,12.14
2022-10-22T17:31:29.476Z,12.12
2022-10-22T17:33:57.959Z,12.11
2022-10-22T17:36:30.444Z,12.09
2022-10-22T17:39:05.675Z,12.09
2022-10-22T17:41:36.917Z,12.13
2022-10-22T17:44:09.294Z,12.12
2022-10-22T17:46:37.979Z,12.11
2022-10-22T17:49:13.306Z,12.10
2022-10-22T17:51:41.490Z,12.07
2022-10-22T17:54:10.199Z,12.10
2022-10-22T17:56:40.394Z,12.12
2022-10-22T17:59:12.875Z,12.11
2022-10-22T18:01:45.777Z,12.10
2022-10-22T18:04:17.005Z,12.08
2022-10-22T18:06:47.226Z,12.11
2022-10-22T18:09:18.657Z,12.15
2022-10-22T18:11:49.617Z,12.15
2022-10-22T18:14:19.631Z,12.09
2022-10-22T18:16:48.213Z,12.09
2022-10-22T18:19:19.870Z,12.12
2022-10-22T18:21:48.145Z,12.17
2022-10-22T18:24:17.285Z,12.16
2022-10-22T18:26:45.516Z,12.14
2022-10-22T18:29:18.605Z,12.12
2022-10-22T18:31:47.983Z,12.09
2022-10-22T18:34:18.891Z,12.12
2022-10-22T18:36:49.753Z,12.10
2022-10-22T18:39:18.335Z,12.05
2022-10-22T18:41:48.996Z,12.03
2022-10-22T18:44:18.174Z,12.02
2022-10-22T18:46:46.266Z,12.04
2022-10-22T18:49:21.096Z,12.02
2022-10-22T18:51:52.837Z,12.01
2022-10-22T18:54:23.668Z,12.01
2022-10-22T18:57:02.577Z,12.02
2022-10-22T18:59:31.610Z,12.02
2022-10-22T19:01:59.876Z,12.01
2022-10-22T19:04:33.766Z,11.98
2022-10-22T19:07:01.876Z,11.96
2022-10-22T19:09:30.655Z,11.96
2022-10-22T19:12:00.261Z,12.04
2022-10-22T19:14:28.433Z,12.04
2022-10-22T19:16:56.811Z,12.01
2022-10-22T19:19:24.882Z,11.97
2022-10-22T19:21:53.543Z,11.98
2022-10-22T19:24:21.643Z,12.04
2022-10-22T19:26:50.331Z,12.07
2022-10-22T19:29:20.342Z,12.05
2022-10-22T19:31:51.014Z,12.02
2022-10-22T19:34:20.784Z,12.01
2022-10-22T19:36:51.811Z,12.03
2022-10-22T19:39:20.491Z,12.04
2022-10-22T19:41:48.686Z,12.01
2022-10-22T19:44:16.859Z,11.99
2022-10-22T19:46:45.036Z,11.95
2022-10-22T19:49:16.542Z,11.98
2022-10-22T19:51:47.115Z,11.93
2022-10-22T19:54:18.678Z,11.89
2022-10-22T19:56:47.972Z,11.86
2022-10-22T19:59:16.949Z,11.88
2022-10-22T20:01:45.036Z,11.91
2022-10-22T20:04:16.073Z,11.92
2022-10-22T20:06:44.459Z,11.89
2022-10-22T20:09:13.373Z,11.85
2022-10-22T20:11:41.617Z,11.84
2022-10-22T20:14:09.689Z,11.87
2022-10-22T20:16:38.485Z,11.85
2022-10-22T20:19:07.825Z,11.82
2022-10-22T20:21:35.848Z,11.81
2022-10-22T20:24:04.594Z,11.79
2022-10-22T20:26:32.710Z,11.81
2022-10-22T20:29:00.983Z,11.86
2022-10-22T20:31:33.069Z,11.84
2022-10-22T20:34:02.045Z,11.79
2022-10-22T20:36:31.894Z,11.76
2022-10-22T20:39:03.193Z,11.77
2022-10-22T20:41:31.274Z,11.82
2022-10-22T20:43:59.243Z,11.83
2022-10-22T20:46:30.990Z,11.82
2022-10-22T20:49:00.300Z,11.83
2022-10-22T20:51:28.991Z,11.81
2022-10-22T20:53:57.433Z,11.84
2022-10-22T20:56:26.767Z,11.85
2022-10-22T20:59:04.691Z,11.83
2022-10-22T21:01:34.381Z,11.80
2022-10-22T21:04:02.461Z,11.77
2022-10-22T21:06:30.623Z,11.79
2022-10-22T21:08:58.759Z,11.83
2022-10-22T21:11:26.972Z,11.84
2022-10-22T21:13:54.939Z,11.82
2022-10-22T21:16:23.320Z,11.80
2022-10-22T21:18:51.697Z,11.81
2022-10-22T21:21:20.177Z,11.85
2022-10-22T21:23:50.314Z,11.84
2022-10-22T21:26:20.108Z,11.83
2022-10-22T21:28:48.389Z,11.82
2022-10-22T21:31:26.194Z,11.81
2022-10-22T21:33:54.462Z,11.83
2022-10-22T21:36:23.719Z,11.82
2022-10-22T21:38:52.672Z,11.81
2022-10-22T21:41:22.977Z,11.82
2022-10-22T21:43:51.879Z,11.83
2022-10-22T21:46:22.292Z,11.87
2022-10-22T21:49:01.323Z,11.88
2022-10-22T21:51:35.639Z,11.84
2022-10-22T21:54:03.830Z,11.82
2022-10-22T21:56:34.855Z,11.85
2022-10-22T21:59:04.869Z,11.91
2022-10-22T22:01:33.975Z,11.90
2022-10-22T22:04:02.752Z,11.89
2022-10-22T22:06:33.511Z,11.89
2022-10-22T22:09:04.158Z,11.90
2022-10-22T22:11:32.808Z,11.90
2022-10-22T22:14:01.080Z,11.88
2022-10-22T22:16:32.226Z,11.83
2022-10-22T22:21:32.256Z,11.79
2022-10-22T22:24:00.329Z,11.83
2022-10-22T22:26:30.197Z,11.83
2022-10-22T22:28:59.965Z,11.82
2022-10-22T22:31:37.652Z,11.79
2022-10-22T22:34:12.992Z,11.81
2022-10-22T22:36:43.622Z,11.87
2022-10-22T22:39:14.486Z,11.90
2022-10-22T22:41:43.656Z,11.88
2022-10-22T22:44:12.849Z,11.84
2022-10-22T22:46:41.232Z,11.84
2022-10-22T22:49:09.817Z,11.87
2022-10-22T22:51:37.887Z,11.89
2022-10-22T22:54:05.863Z,11.88
2022-10-22T22:56:34.814Z,11.86
2022-10-22T22:59:04.148Z,11.87
2022-10-22T23:01:37.957Z,11.91
2022-10-22T23:04:16.488Z,11.90
2022-10-22T23:06:45.452Z,11.89
2022-10-22T23:09:15.452Z,11.86
2022-10-22T23:11:45.293Z,11.87
2022-10-22T23:14:15.719Z,11.89
2022-10-22T23:16:49.423Z,11.88
2022-10-22T23:19:20.261Z,11.87
2022-10-22T23:21:54.268Z,11.88
2022-10-22T23:24:28.970Z,11.91
2022-10-22T23:27:01.139Z,11.94
2022-10-22T23:29:31.900Z,11.93
2022-10-22T23:32:01.712Z,11.91
2022-10-22T23:34:31.611Z,11.87
2022-10-22T23:37:00.339Z,11.86
2022-10-22T23:39:29.256Z,11.89
2022-10-22T23:41:58.072Z,11.88
2022-10-22T23:44:26.472Z,11.86
2022-10-22T23:46:55.363Z,11.85
2022-10-22T23:49:23.435Z,11.87
2022-10-22T23:51:51.402Z,11.92
2022-10-22T23:54:19.470Z,11.93
2022-10-22T23:56:47.544Z,11.93
2022-10-22T23:59:16.284Z,11.91
